Davao, Philippines
Current Conditions -  °F | °C
As of 4:00 PM on Saturday 01 Nov 2014 (Local Time) from RPMD Reporting Station
Haze Haze  
Wind Chill: 88°   Ceiling: 29000
Heat Index: 100°   Visibility: 2.9mi
Dew Point: 77°   Wind: 9mph
Humidity: 70%   Direction: 190°S
Pressure: 29.65"   Gusts: NA
Location:  7.11°N, 125.63°E
Report Text: RPMD 010800Z 19008KT 4700 HZ FEW015CB BKN290 31/25 Q1004 RMK A2965 CB NNW AND W
Loading
Personal Weather Stations






























Interactive Weather Map
Tropical Storm Tracking
New forecast layout! Learn more

10-Day Weather Forecast

Advertisements
Track Severe Weather on mobile